Time,TemperatureF,DewpointF,PressureIn,WindDirection,WindDirectionDegrees,WindSpeedMPH,WindSpeedGustMPH,Humidity,HourlyPrecipIn,Conditions,Clouds,dailyrainin,SoftwareType,DateUTC
2013-06-21 00:00:00,65.3,55.5,30.28,SE,135,1.0,1.1,70,0.01,,,0.00,WUHU216HW,2013-06-21 04:00:00,
2013-06-21 00:01:00,65.3,55.5,30.28,SE,135,0.9,1.1,70,0.01,,,0.00,WUHU216HW,2013-06-21 04:01:00,
2013-06-21 00:06:00,65.2,55.4,30.28,SE,135,1.1,1.3,70,0.01,,,0.00,WUHU216HW,2013-06-21 04:06:00,
2013-06-21 00:11:00,65.0,55.2,30.28,SE,135,0.9,1.1,70,0.01,,,0.00,WUHU216HW,2013-06-21 04:11:00,
2013-06-21 00:16:00,64.8,55.1,30.28,SE,135,0.0,0.9,70,0.01,,,0.00,WUHU216HW,2013-06-21 04:16:00,
2013-06-21 00:21:00,64.8,55.4,30.28,SE,135,0.0,0.0,71,0.01,,,0.00,WUHU216HW,2013-06-21 04:21:00,
2013-06-21 00:26:00,64.4,55.0,30.28,SE,135,0.0,0.0,71,0.01,,,0.00,WUHU216HW,2013-06-21 04:26:00,
2013-06-21 00:31:00,64.4,55.0,30.28,SE,135,0.0,0.0,71,0.01,,,0.00,WUHU216HW,2013-06-21 04:31:00,
2013-06-21 00:36:00,64.3,54.9,30.28,SE,135,0.0,0.0,71,0.01,,,0.00,WUHU216HW,2013-06-21 04:36:00,
2013-06-21 00:41:00,64.1,55.1,30.28,SE,135,0.0,0.0,72,0.01,,,0.00,WUHU216HW,2013-06-21 04:41:00,
2013-06-21 00:46:00,63.7,54.7,30.28,SE,135,0.0,0.0,72,0.01,,,0.00,WUHU216HW,2013-06-21 04:46:00,
2013-06-21 00:51:00,63.7,54.7,30.28,SE,135,0.0,0.0,72,0.00,,,0.00,WUHU216HW,2013-06-21 04:51:00,
2013-06-21 00:56:00,63.5,54.9,30.28,SE,135,0.0,0.0,73,0.00,,,0.00,WUHU216HW,2013-06-21 04:56:00,
2013-06-21 01:01:00,63.4,54.4,30.28,SE,135,0.0,0.0,72,0.00,,,0.00,WUHU216HW,2013-06-21 05:01:00,
2013-06-21 01:06:00,63.4,54.4,30.27,SE,135,0.7,0.9,72,0.00,,,0.00,WUHU216HW,2013-06-21 05:06:00,
2013-06-21 01:11:00,63.2,54.2,30.27,SE,135,0.3,0.9,72,0.00,,,0.00,WUHU216HW,2013-06-21 05:11:00,
2013-06-21 01:16:00,63.0,54.0,30.27,SE,135,0.7,1.1,72,0.00,,,0.00,WUHU216HW,2013-06-21 05:16:00,
2013-06-21 01:21:00,63.0,54.0,30.27,SE,135,0.4,1.1,72,0.00,,,0.00,WUHU216HW,2013-06-21 05:21:00,
2013-06-21 01:26:00,62.8,54.2,30.27,SE,135,0.9,0.9,73,0.00,,,0.00,WUHU216HW,2013-06-21 05:26:00,
2013-06-21 01:31:00,62.6,54.0,30.27,ESE,113,0.6,1.6,73,0.00,,,0.00,WUHU216HW,2013-06-21 05:31:00,
2013-06-21 01:36:00,62.5,53.9,30.27,SE,135,1.1,1.6,73,0.00,,,0.00,WUHU216HW,2013-06-21 05:36:00,
2013-06-21 01:41:00,62.3,53.7,30.27,SE,142,0.3,1.1,73,0.00,,,0.00,WUHU216HW,2013-06-21 05:41:00,
2013-06-21 01:46:00,62.3,54.1,30.27,SE,135,0.4,0.9,74,0.00,,,0.00,WUHU216HW,2013-06-21 05:46:00,
2013-06-21 01:51:00,62.3,54.1,30.27,ESE,113,0.2,0.4,74,0.00,,,0.00,WUHU216HW,2013-06-21 05:51:00,
2013-06-21 01:56:00,62.1,53.9,30.27,SE,135,0.0,1.1,74,0.00,,,0.00,WUHU216HW,2013-06-21 05:56:00,
2013-06-21 02:01:00,62.1,53.9,30.28,SE,135,0.6,1.1,74,0.00,,,0.00,WUHU216HW,2013-06-21 06:01:00,
2013-06-21 02:06:00,61.9,53.7,30.28,SSE,158,0.0,1.1,74,0.00,,,0.00,WUHU216HW,2013-06-21 06:06:00,
2013-06-21 02:11:00,61.9,53.7,30.27,SSE,158,0.2,0.7,74,0.00,,,0.00,WUHU216HW,2013-06-21 06:11:00,
2013-06-21 02:16:00,61.7,53.5,30.27,SSE,158,0.0,0.7,74,0.00,,,0.00,WUHU216HW,2013-06-21 06:16:00,
2013-06-21 02:21:00,61.7,53.5,30.27,SE,135,0.7,0.7,74,0.00,,,0.00,WUHU216HW,2013-06-21 06:21:00,
2013-06-21 02:26:00,61.6,53.4,30.27,SSE,158,0.4,0.7,74,0.00,,,0.00,WUHU216HW,2013-06-21 06:26:00,
2013-06-21 02:31:00,61.6,53.7,30.27,SE,135,1.3,1.3,75,0.00,,,0.00,WUHU216HW,2013-06-21 06:31:00,
2013-06-21 02:36:00,61.4,53.5,30.27,SE,135,1.1,1.3,75,0.00,,,0.00,WUHU216HW,2013-06-21 06:36:00,
2013-06-21 02:41:00,61.4,53.5,30.26,SE,135,0.9,1.3,75,0.00,,,0.00,WUHU216HW,2013-06-21 06:41:00,
2013-06-21 02:46:00,61.4,53.5,30.26,SSE,158,1.1,1.3,75,0.00,,,0.00,WUHU216HW,2013-06-21 06:46:00,
2013-06-21 02:51:00,61.2,53.3,30.26,SE,135,0.7,1.3,75,0.00,,,0.00,WUHU216HW,2013-06-21 06:51:00,
2013-06-21 02:56:00,61.2,53.3,30.25,SSE,158,0.4,1.1,75,0.00,,,0.00,WUHU216HW,2013-06-21 06:56:00,
2013-06-21 03:01:00,61.0,53.1,30.25,ESE,113,0.0,1.1,75,0.00,,,0.00,WUHU216HW,2013-06-21 07:01:00,
2013-06-21 03:06:00,61.0,53.1,30.26,ESE,113,0.0,0.0,75,0.00,,,0.00,WUHU216HW,2013-06-21 07:06:00,
2013-06-21 03:11:00,60.8,52.9,30.26,SE,135,0.0,0.0,75,0.00,,,0.00,WUHU216HW,2013-06-21 07:11:00,
2013-06-21 03:16:00,60.8,52.9,30.26,SE,135,0.0,0.0,75,0.00,,,0.00,WUHU216HW,2013-06-21 07:16:00,
2013-06-21 03:21:00,60.7,52.9,30.26,SE,135,0.7,0.7,75,0.00,,,0.00,WUHU216HW,2013-06-21 07:21:00,
2013-06-21 03:26:00,60.7,52.9,30.26,SE,135,0.4,0.7,75,0.00,,,0.00,WUHU216HW,2013-06-21 07:26:00,
2013-06-21 03:31:00,60.5,53.0,30.26,SE,135,1.1,1.1,76,0.00,,,0.00,WUHU216HW,2013-06-21 07:31:00,
2013-06-21 03:36:00,60.3,52.8,30.26,SE,135,0.4,1.1,76,0.00,,,0.00,WUHU216HW,2013-06-21 07:36:00,
2013-06-21 03:41:00,60.3,52.8,30.26,SE,135,0.6,0.9,76,0.00,,,0.00,WUHU216HW,2013-06-21 07:41:00,
2013-06-21 03:46:00,60.1,52.6,30.26,SSE,158,0.4,0.9,76,0.00,,,0.00,WUHU216HW,2013-06-21 07:46:00,
2013-06-21 03:51:00,60.1,52.6,30.26,SE,135,1.1,1.1,76,0.00,,,0.00,WUHU216HW,2013-06-21 07:51:00,
2013-06-21 03:56:00,59.9,52.7,30.26,SSE,158,0.0,1.6,77,0.00,,,0.00,WUHU216HW,2013-06-21 07:56:00,
2013-06-21 04:01:00,59.9,52.7,30.26,SE,135,0.4,1.6,77,0.00,,,0.00,WUHU216HW,2013-06-21 08:01:00,
2013-06-21 04:06:00,59.8,52.6,30.26,SSE,158,0.4,0.9,77,0.00,,,0.00,WUHU216HW,2013-06-21 08:06:00,
2013-06-21 04:11:00,59.8,52.6,30.26,SSE,158,0.0,0.4,77,0.00,,,0.00,WUHU216HW,2013-06-21 08:11:00,
2013-06-21 04:16:00,59.8,52.6,30.26,SE,135,0.0,0.4,77,0.00,,,0.00,WUHU216HW,2013-06-21 08:16:00,
2013-06-21 04:21:00,59.8,52.6,30.26,SSE,158,0.0,0.2,77,0.00,,,0.00,WUHU216HW,2013-06-21 08:21:00,
2013-06-21 04:26:00,59.6,52.4,30.26,SSE,158,0.8,0.9,77,0.00,,,0.00,WUHU216HW,2013-06-21 08:26:00,
2013-06-21 04:31:00,59.6,52.8,30.26,SSE,158,1.1,1.1,78,0.00,,,0.00,WUHU216HW,2013-06-21 08:31:00,
2013-06-21 04:36:00,59.6,52.8,30.26,SSE,158,0.4,1.1,78,0.01,,,0.01,WUHU216HW,2013-06-21 08:36:00,
2013-06-21 04:41:00,59.6,52.8,30.26,SE,135,0.3,0.9,78,0.01,,,0.01,WUHU216HW,2013-06-21 08:41:00,
2013-06-21 04:46:00,59.4,52.6,30.26,SSE,158,0.7,0.7,78,0.01,,,0.01,WUHU216HW,2013-06-21 08:46:00,
2013-06-21 04:51:00,59.4,52.6,30.26,SE,135,0.2,1.1,78,0.01,,,0.01,WUHU216HW,2013-06-21 08:51:00,
2013-06-21 04:56:00,59.4,52.6,30.26,South,180,0.4,1.1,78,0.01,,,0.01,WUHU216HW,2013-06-21 08:56:00,
2013-06-21 05:01:00,59.4,52.6,30.26,SE,135,0.7,0.9,78,0.01,,,0.01,WUHU216HW,2013-06-21 09:01:00,
2013-06-21 05:06:00,59.4,52.9,30.26,SE,135,0.7,0.7,79,0.01,,,0.01,WUHU216HW,2013-06-21 09:06:00,
2013-06-21 05:11:00,59.2,52.7,30.26,SE,135,0.4,0.7,79,0.01,,,0.01,WUHU216HW,2013-06-21 09:11:00,
2013-06-21 05:16:00,59.2,52.7,30.27,SE,135,0.0,0.7,79,0.01,,,0.01,WUHU216HW,2013-06-21 09:16:00,
2013-06-21 05:21:00,59.2,52.7,30.27,ESE,113,0.2,0.7,79,0.01,,,0.01,WUHU216HW,2013-06-21 09:21:00,
2013-06-21 05:26:00,59.2,52.7,30.26,ESE,113,0.0,0.7,79,0.01,,,0.01,WUHU216HW,2013-06-21 09:26:00,
2013-06-21 05:31:00,59.0,52.5,30.27,ESE,113,0.0,0.0,79,0.01,,,0.01,WUHU216HW,2013-06-21 09:31:00,
2013-06-21 05:36:00,59.0,52.5,30.27,ESE,113,0.0,0.0,79,0.00,,,0.01,WUHU216HW,2013-06-21 09:36:00,
2013-06-21 05:41:00,59.0,52.5,30.27,ESE,113,0.2,0.4,79,0.00,,,0.01,WUHU216HW,2013-06-21 09:41:00,
2013-06-21 05:46:00,59.0,52.5,30.27,South,172,0.6,0.7,79,0.00,,,0.01,WUHU216HW,2013-06-21 09:46:00,
2013-06-21 05:51:00,59.0,52.5,30.27,SE,135,0.4,0.7,79,0.00,,,0.01,WUHU216HW,2013-06-21 09:51:00,
2013-06-21 05:56:00,59.0,52.5,30.27,ESE,113,0.4,0.4,79,0.00,,,0.01,WUHU216HW,2013-06-21 09:56:00,
2013-06-21 06:01:00,59.0,52.5,30.27,SSE,158,0.0,0.7,79,0.00,,,0.01,WUHU216HW,2013-06-21 10:01:00,
2013-06-21 06:06:00,59.0,52.8,30.27,ESE,113,0.0,0.7,80,0.00,,,0.01,WUHU216HW,2013-06-21 10:06:00,
2013-06-21 06:11:00,59.0,52.8,30.28,SE,135,0.4,0.9,80,0.00,,,0.01,WUHU216HW,2013-06-21 10:11:00,
2013-06-21 06:16:00,59.2,53.0,30.28,WNW,293,0.0,0.9,80,0.00,,,0.01,WUHU216HW,2013-06-21 10:16:00,
2013-06-21 06:21:00,59.2,53.0,30.28,West,264,1.3,2.2,80,0.00,,,0.01,WUHU216HW,2013-06-21 10:21:00,
2013-06-21 06:26:00,59.2,53.0,30.28,NW,315,0.4,2.2,80,0.00,,,0.01,WUHU216HW,2013-06-21 10:26:00,
2013-06-21 06:31:00,59.4,53.2,30.28,SSE,158,0.0,0.9,80,0.00,,,0.01,WUHU216HW,2013-06-21 10:31:00,
2013-06-21 06:36:00,59.4,53.2,30.28,SE,135,0.0,0.9,80,0.00,,,0.01,WUHU216HW,2013-06-21 10:36:00,
2013-06-21 06:41:00,59.4,53.5,30.28,SSE,158,0.7,1.8,81,0.00,,,0.01,WUHU216HW,2013-06-21 10:41:00,
2013-06-21 06:46:00,59.6,53.7,30.28,ESE,113,0.4,1.8,81,0.00,,,0.01,WUHU216HW,2013-06-21 10:46:00,
2013-06-21 06:51:00,59.8,53.9,30.28,West,270,0.2,0.7,81,0.00,,,0.01,WUHU216HW,2013-06-21 10:51:00,
2013-06-21 06:56:00,59.9,54.0,30.28,West,270,3.1,3.1,81,0.00,,,0.01,WUHU216HW,2013-06-21 10:56:00,
2013-06-21 07:01:00,60.1,54.2,30.28,West,269,1.8,4.5,81,0.00,,,0.01,WUHU216HW,2013-06-21 11:01:00,
2013-06-21 07:06:00,60.5,54.6,30.27,SW,235,2.2,4.5,81,0.00,,,0.01,WUHU216HW,2013-06-21 11:06:00,
2013-06-21 07:11:00,60.7,54.8,30.28,South,176,1.8,6.5,81,0.00,,,0.01,WUHU216HW,2013-06-21 11:11:00,
2013-06-21 07:16:00,60.8,54.6,30.27,South,171,0.6,6.5,80,0.00,,,0.01,WUHU216HW,2013-06-21 11:16:00,
2013-06-21 07:21:00,61.0,54.8,30.28,West,272,1.3,4.9,80,0.00,,,0.01,WUHU216HW,2013-06-21 11:21:00,
2013-06-21 07:26:00,61.2,55.0,30.27,SSE,158,1.1,4.7,80,0.00,,,0.01,WUHU216HW,2013-06-21 11:26:00,
2013-06-21 07:31:00,61.4,55.2,30.27,SE,139,1.1,4.7,80,0.00,,,0.01,WUHU216HW,2013-06-21 11:31:00,
2013-06-21 07:36:00,61.6,55.0,30.27,WNW,302,3.7,5.6,79,0.00,,,0.01,WUHU216HW,2013-06-21 11:36:00,
2013-06-21 07:41:00,61.9,55.3,30.27,West,270,2.7,5.6,79,0.00,,,0.01,WUHU216HW,2013-06-21 11:41:00,
2013-06-21 07:46:00,62.1,55.5,30.27,West,270,4.9,4.9,79,0.00,,,0.01,WUHU216HW,2013-06-21 11:46:00,
2013-06-21 07:51:00,62.3,55.7,30.27,WSW,257,1.9,4.9,79,0.00,,,0.01,WUHU216HW,2013-06-21 11:51:00,
2013-06-21 07:56:00,62.3,55.7,30.27,WNW,293,2.9,2.9,79,0.00,,,0.01,WUHU216HW,2013-06-21 11:56:00,
2013-06-21 08:01:00,62.5,55.9,30.27,SE,135,1.1,2.9,79,0.00,,,0.01,WUHU216HW,2013-06-21 12:01:00,
2013-06-21 08:06:00,62.8,56.2,30.27,WSW,248,3.0,4.0,79,0.00,,,0.01,WUHU216HW,2013-06-21 12:06:00,
2013-06-21 08:11:00,63.0,56.4,30.27,SE,146,1.2,4.0,79,0.00,,,0.01,WUHU216HW,2013-06-21 12:11:00,
2013-06-21 08:16:00,63.4,56.5,30.27,SSW,203,1.1,2.9,78,0.00,,,0.01,WUHU216HW,2013-06-21 12:16:00,
2013-06-21 08:21:00,63.5,56.6,30.27,South,180,1.8,1.8,78,0.00,,,0.01,WUHU216HW,2013-06-21 12:21:00,
2013-06-21 08:26:00,63.7,56.8,30.27,SW,233,2.8,3.8,78,0.00,,,0.01,WUHU216HW,2013-06-21 12:26:00,
2013-06-21 08:31:00,63.9,57.0,30.27,South,175,0.7,3.8,78,0.00,,,0.01,WUHU216HW,2013-06-21 12:31:00,
2013-06-21 08:36:00,64.3,57.3,30.27,West,270,2.7,2.7,78,0.01,,,0.02,WUHU216HW,2013-06-21 12:36:00,
2013-06-21 08:41:00,64.6,57.6,30.27,NW,315,0.9,3.1,78,0.01,,,0.02,WUHU216HW,2013-06-21 12:41:00,
2013-06-21 08:46:00,64.8,58.2,30.27,WSW,248,2.9,3.6,79,0.01,,,0.02,WUHU216HW,2013-06-21 12:46:00,
2013-06-21 08:51:00,65.2,58.2,30.27,South,180,1.1,3.6,78,0.01,,,0.02,WUHU216HW,2013-06-21 12:51:00,
2013-06-21 08:56:00,65.3,58.3,30.27,WSW,248,1.1,2.9,78,0.01,,,0.02,WUHU216HW,2013-06-21 12:56:00,
2013-06-21 09:01:00,65.7,58.7,30.27,South,171,0.9,3.6,78,0.01,,,0.02,WUHU216HW,2013-06-21 13:01:00,
2013-06-21 09:06:00,65.9,58.9,30.27,WNW,293,1.0,3.6,78,0.01,,,0.02,WUHU216HW,2013-06-21 13:06:00,
2013-06-21 09:11:00,66.1,59.1,30.27,SE,141,1.0,1.3,78,0.01,,,0.02,WUHU216HW,2013-06-21 13:11:00,
2013-06-21 09:16:00,66.2,59.2,30.26,West,259,3.3,3.4,78,0.01,,,0.02,WUHU216HW,2013-06-21 13:16:00,
2013-06-21 09:21:00,66.6,59.3,30.26,SW,225,1.8,3.4,77,0.01,,,0.02,WUHU216HW,2013-06-21 13:21:00,
2013-06-21 09:26:00,67.1,59.7,30.26,West,279,1.7,4.9,77,0.01,,,0.02,WUHU216HW,2013-06-21 13:26:00,
2013-06-21 09:31:00,67.3,59.6,30.26,WNW,293,3.4,4.9,76,0.01,,,0.02,WUHU216HW,2013-06-21 13:31:00,
2013-06-21 09:37:00,67.9,60.2,30.26,NW,315,4.3,5.8,76,0.00,,,0.02,WUHU216HW,2013-06-21 13:37:00,
2013-06-21 09:42:00,68.4,60.3,30.26,NW,313,2.9,5.8,75,0.00,,,0.02,WUHU216HW,2013-06-21 13:42:00,
2013-06-21 09:47:00,68.6,60.5,30.26,NW,315,2.9,4.0,75,0.00,,,0.02,WUHU216HW,2013-06-21 13:47:00,
2013-06-21 09:52:00,68.9,60.4,30.26,South,174,1.0,3.4,74,0.00,,,0.02,WUHU216HW,2013-06-21 13:52:00,
2013-06-21 09:57:00,69.3,60.8,30.26,West,270,3.6,3.6,74,0.00,,,0.02,WUHU216HW,2013-06-21 13:57:00,
2013-06-21 10:02:00,69.5,60.7,30.26,NNW,338,2.9,3.6,73,0.00,,,0.02,WUHU216HW,2013-06-21 14:02:00,
2013-06-21 10:07:00,70.0,60.8,30.27,WSW,246,2.9,5.6,72,0.00,,,0.02,WUHU216HW,2013-06-21 14:07:00,
2013-06-21 10:12:00,70.2,61.0,30.27,SSW,203,1.8,5.6,72,0.00,,,0.02,WUHU216HW,2013-06-21 14:12:00,
2013-06-21 10:17:00,70.6,61.0,30.27,WSW,248,4.5,4.5,71,0.00,,,0.02,WUHU216HW,2013-06-21 14:17:00,
2013-06-21 10:22:00,70.9,60.9,30.27,WNW,293,7.2,7.2,70,0.00,,,0.02,WUHU216HW,2013-06-21 14:22:00,
2013-06-21 10:27:00,71.1,61.1,30.27,WNW,283,2.6,7.2,70,0.00,,,0.02,WUHU216HW,2013-06-21 14:27:00,
2013-06-21 10:32:00,71.3,61.3,30.27,SW,225,1.6,5.6,70,0.00,,,0.02,WUHU216HW,2013-06-21 14:32:00,
2013-06-21 10:37:00,71.5,61.5,30.27,SW,225,2.7,5.6,70,0.00,,,0.02,WUHU216HW,2013-06-21 14:37:00,
2013-06-21 10:42:00,71.6,61.6,30.27,SW,225,0.9,2.7,70,0.00,,,0.02,WUHU216HW,2013-06-21 14:42:00,
2013-06-21 10:47:00,72.0,61.6,30.27,WNW,301,1.5,3.6,69,0.00,,,0.02,WUHU216HW,2013-06-21 14:47:00,
2013-06-21 10:52:00,72.2,61.8,30.27,WNW,293,1.8,5.8,69,0.00,,,0.02,WUHU216HW,2013-06-21 14:52:00,
2013-06-21 10:57:00,72.5,62.5,30.27,South,180,0.8,5.8,70,0.00,,,0.02,WUHU216HW,2013-06-21 14:57:00,
2013-06-21 11:02:00,72.5,62.5,30.27,WNW,302,3.0,3.6,70,0.00,,,0.02,WUHU216HW,2013-06-21 15:02:00,
2013-06-21 11:07:00,72.7,62.7,30.27,North,0,2.5,3.6,70,0.00,,,0.02,WUHU216HW,2013-06-21 15:07:00,
2013-06-21 11:12:00,73.1,62.7,30.27,SW,225,5.8,5.8,69,0.00,,,0.02,WUHU216HW,2013-06-21 15:12:00,
2013-06-21 11:17:00,73.4,62.6,30.27,West,270,3.4,5.8,68,0.00,,,0.02,WUHU216HW,2013-06-21 15:17:00,
2013-06-21 11:22:00,73.8,62.6,30.27,West,270,2.9,5.8,67,0.00,,,0.02,WUHU216HW,2013-06-21 15:22:00,
2013-06-21 11:27:00,73.8,62.6,30.27,WNW,293,3.8,3.8,67,0.00,,,0.02,WUHU216HW,2013-06-21 15:27:00,
2013-06-21 11:32:00,74.3,63.0,30.27,NW,315,1.1,3.8,67,0.00,,,0.02,WUHU216HW,2013-06-21 15:32:00,
2013-06-21 11:37:00,74.5,62.8,30.27,SSW,203,2.0,3.8,67,0.00,,,0.02,WUHU216HW,2013-06-21 15:37:00,
2013-06-21 11:42:00,74.9,62.8,30.27,ESE,113,1.6,4.9,66,0.00,,,0.02,WUHU216HW,2013-06-21 15:42:00,
2013-06-21 11:47:00,75.1,63.4,30.27,SW,232,1.5,4.9,67,0.00,,,0.02,WUHU216HW,2013-06-21 15:47:00,
2013-06-21 11:52:00,75.1,63.4,30.27,West,270,2.5,2.9,67,0.00,,,0.02,WUHU216HW,2013-06-21 15:52:00,
2013-06-21 11:57:00,75.2,63.1,30.27,ESE,113,1.8,6.9,66,0.00,,,0.02,WUHU216HW,2013-06-21 15:57:00,
2013-06-21 12:02:00,75.6,62.6,30.27,WSW,238,5.8,6.9,64,0.01,,,0.03,WUHU216HW,2013-06-21 16:02:00,
2013-06-21 12:07:00,76.0,62.1,30.27,WSW,248,2.0,6.9,62,0.01,,,0.03,WUHU216HW,2013-06-21 16:07:00,
2013-06-21 12:12:00,76.1,62.2,30.27,WSW,248,0.9,5.4,62,0.01,,,0.03,WUHU216HW,2013-06-21 16:12:00,
2013-06-21 12:17:00,76.3,62.4,30.26,North,0,3.1,4.9,62,0.01,,,0.03,WUHU216HW,2013-06-21 16:17:00,
2013-06-21 12:22:00,76.5,62.2,30.26,West,270,3.4,6.3,61,0.01,,,0.03,WUHU216HW,2013-06-21 16:22:00,
2013-06-21 12:27:00,76.9,62.1,30.26,WNW,290,4.9,6.3,60,0.01,,,0.03,WUHU216HW,2013-06-21 16:27:00,
2013-06-21 12:32:00,77.2,62.4,30.26,NE,45,4.0,5.4,60,0.01,,,0.03,WUHU216HW,2013-06-21 16:32:00,
2013-06-21 12:38:00,77.6,62.3,30.26,West,270,6.5,6.5,59,0.01,,,0.03,WUHU216HW,2013-06-21 16:38:00,
2013-06-21 12:43:00,78.1,61.8,30.26,WNW,301,4.9,6.5,57,0.01,,,0.03,WUHU216HW,2013-06-21 16:43:00,
2013-06-21 12:48:00,78.3,62.0,30.26,WSW,254,2.9,6.3,57,0.01,,,0.03,WUHU216HW,2013-06-21 16:48:00,
2013-06-21 12:53:00,78.5,62.7,30.26,NW,315,1.8,4.0,58,0.01,,,0.03,WUHU216HW,2013-06-21 16:53:00,
2013-06-21 12:58:00,78.3,63.0,30.27,WSW,242,2.0,4.0,59,0.00,,,0.03,WUHU216HW,2013-06-21 16:58:00,
2013-06-21 13:03:00,78.5,62.7,30.26,WNW,290,4.4,5.4,58,0.00,,,0.03,WUHU216HW,2013-06-21 17:03:00,
2013-06-21 13:08:00,78.5,62.7,30.26,NNW,334,2.5,5.4,58,0.00,,,0.03,WUHU216HW,2013-06-21 17:08:00,
2013-06-21 13:14:00,78.8,63.0,30.26,WSW,248,4.9,4.9,58,0.00,,,0.03,WUHU216HW,2013-06-21 17:14:00,
2013-06-21 13:19:00,79.4,62.6,30.26,NW,315,4.9,5.4,56,0.00,,,0.03,WUHU216HW,2013-06-21 17:19:00,
2013-06-21 13:24:00,79.6,62.2,30.26,West,277,4.6,6.3,55,0.00,,,0.03,WUHU216HW,2013-06-21 17:24:00,
2013-06-21 13:29:00,79.9,63.0,30.25,SW,225,1.1,6.3,56,0.00,,,0.03,WUHU216HW,2013-06-21 17:29:00,
2013-06-21 13:34:00,80.1,62.7,30.25,WSW,248,4.7,6.3,55,0.00,,,0.03,WUHU216HW,2013-06-21 17:34:00,
2013-06-21 13:40:00,80.5,62.6,30.25,WSW,244,3.6,6.3,54,0.00,,,0.03,WUHU216HW,2013-06-21 17:40:00,
2013-06-21 13:45:00,80.8,63.4,30.25,SSW,203,1.1,4.9,55,0.00,,,0.03,WUHU216HW,2013-06-21 17:45:00,
2013-06-21 13:46:00,80.8,63.4,30.25,SSW,203,1.1,4.9,55,0.00,,,0.03,WUHU216HW,2013-06-21 17:46:00,
2013-06-21 13:48:00,80.8,62.9,30.25,WSW,238,3.2,4.3,54,0.00,,,0.03,WUHU216HW,2013-06-21 17:48:00,
2013-06-21 13:53:00,81.0,63.6,30.25,WNW,293,2.2,3.6,55,0.00,,,0.03,WUHU216HW,2013-06-21 17:53:00,
2013-06-21 13:58:00,81.0,63.6,30.25,NNW,348,0.8,3.1,55,0.00,,,0.03,WUHU216HW,2013-06-21 17:58:00,
2013-06-21 14:03:00,80.8,63.9,30.25,SW,225,3.6,3.6,56,0.00,,,0.03,WUHU216HW,2013-06-21 18:03:00,
2013-06-21 14:08:00,80.6,63.2,30.25,WNW,293,0.9,4.7,55,0.00,,,0.03,WUHU216HW,2013-06-21 18:08:00,
2013-06-21 14:14:00,80.6,63.7,30.25,SW,235,1.0,4.7,56,0.00,,,0.03,WUHU216HW,2013-06-21 18:14:00,
2013-06-21 14:19:00,80.5,64.1,30.25,SSW,203,0.6,1.3,57,0.00,,,0.03,WUHU216HW,2013-06-21 18:19:00,
2013-06-21 14:23:00,80.3,63.9,30.25,NW,313,2.8,2.9,57,0.00,,,0.03,WUHU216HW,2013-06-21 18:23:00,
2013-06-21 14:24:00,80.3,63.9,30.25,NW,313,2.8,2.9,57,0.00,,,0.03,WUHU216HW,2013-06-21 18:24:00,
2013-06-21 14:29:00,80.3,63.9,30.25,SW,225,0.9,4.7,57,0.00,,,0.03,WUHU216HW,2013-06-21 18:29:00,
2013-06-21 14:34:00,80.1,63.7,30.24,West,266,2.1,4.7,57,0.00,,,0.03,WUHU216HW,2013-06-21 18:34:00,
2013-06-21 14:39:00,80.1,63.7,30.24,WNW,293,2.5,2.9,57,0.00,,,0.03,WUHU216HW,2013-06-21 18:39:00,
2013-06-21 14:45:00,80.3,63.4,30.24,West,270,1.8,2.5,56,0.00,,,0.03,WUHU216HW,2013-06-21 18:45:00,
2013-06-21 14:46:00,80.5,63.1,30.24,West,270,4.0,4.0,55,0.00,,,0.03,WUHU216HW,2013-06-21 18:46:00,
2013-06-21 14:51:00,80.6,62.7,30.24,West,277,2.8,4.0,54,0.01,,,0.04,WUHU216HW,2013-06-21 18:51:00,
2013-06-21 14:56:00,80.6,62.2,30.24,SW,225,3.6,3.6,53,0.01,,,0.04,WUHU216HW,2013-06-21 18:56:00,
2013-06-21 15:01:00,81.2,62.2,30.24,West,270,6.3,6.3,52,0.01,,,0.04,WUHU216HW,2013-06-21 19:01:00,
2013-06-21 15:06:00,82.1,63.0,30.23,SE,135,6.7,6.7,52,0.01,,,0.04,WUHU216HW,2013-06-21 19:06:00,
2013-06-21 15:11:00,82.4,62.8,30.24,West,270,3.4,6.7,51,0.01,,,0.04,WUHU216HW,2013-06-21 19:11:00,
2013-06-21 15:16:00,83.0,62.2,30.24,SW,229,3.8,6.0,49,0.01,,,0.04,WUHU216HW,2013-06-21 19:16:00,
2013-06-21 15:20:00,83.3,61.9,30.24,SW,225,3.1,9.4,49,0.01,,,0.04,WUHU216HW,2013-06-21 19:20:00,
2013-06-21 15:25:00,83.9,62.5,30.24,WSW,248,2.7,9.4,49,0.01,,,0.04,WUHU216HW,2013-06-21 19:25:00,
2013-06-21 15:30:00,84.1,62.1,30.24,WSW,248,5.4,5.4,48,0.01,,,0.04,WUHU216HW,2013-06-21 19:30:00,
2013-06-21 15:35:00,84.6,62.5,30.24,WSW,239,3.3,5.4,48,0.01,,,0.04,WUHU216HW,2013-06-21 19:35:00,
2013-06-21 15:40:00,84.6,62.5,30.24,WSW,248,4.1,5.6,48,0.01,,,0.04,WUHU216HW,2013-06-21 19:40:00,
2013-06-21 15:42:00,84.8,62.1,30.24,NW,315,2.5,5.6,47,0.01,,,0.04,WUHU216HW,2013-06-21 19:42:00,
2013-06-21 15:48:00,85.0,62.9,30.24,SW,225,2.9,5.6,48,0.00,,,0.04,WUHU216HW,2013-06-21 19:48:00,
2013-06-21 15:53:00,85.3,62.6,30.24,North,0,3.8,4.0,47,0.00,,,0.04,WUHU216HW,2013-06-21 19:53:00,
2013-06-21 15:58:00,85.3,62.0,30.24,NNW,338,1.6,3.8,46,0.00,,,0.04,WUHU216HW,2013-06-21 19:58:00,
2013-06-21 16:03:00,85.7,60.5,30.24,West,270,6.3,6.3,43,0.00,,,0.04,WUHU216HW,2013-06-21 20:03:00,
2013-06-21 16:04:00,85.7,60.5,30.24,West,270,6.3,6.3,43,0.00,,,0.04,WUHU216HW,2013-06-21 20:04:00,
2013-06-21 16:08:00,85.7,60.5,30.24,NW,315,4.0,6.3,43,0.00,,,0.04,WUHU216HW,2013-06-21 20:08:00,
2013-06-21 16:11:00,85.9,61.3,30.24,South,183,2.0,6.3,44,0.00,,,0.04,WUHU216HW,2013-06-21 20:11:00,
2013-06-21 16:13:00,85.9,59.3,30.24,WNW,300,5.1,6.7,41,0.00,,,0.04,WUHU216HW,2013-06-21 20:13:00,
2013-06-21 16:18:00,85.9,58.7,30.24,NNW,338,2.2,7.2,40,0.00,,,0.04,WUHU216HW,2013-06-21 20:18:00,
2013-06-21 16:23:00,85.9,58.0,30.23,North,0,3.8,7.2,39,0.00,,,0.04,WUHU216HW,2013-06-21 20:23:00,
2013-06-21 16:28:00,85.9,57.3,30.23,WSW,248,5.1,5.6,38,0.00,,,0.04,WUHU216HW,2013-06-21 20:28:00,
2013-06-21 16:33:00,85.9,57.3,30.23,NNW,338,2.5,5.1,38,0.00,,,0.04,WUHU216HW,2013-06-21 20:33:00,
2013-06-21 16:38:00,85.9,56.6,30.23,SW,215,5.4,5.8,37,0.00,,,0.04,WUHU216HW,2013-06-21 20:38:00,
2013-06-21 16:43:00,85.9,57.3,30.23,NW,315,5.4,5.8,38,0.00,,,0.04,WUHU216HW,2013-06-21 20:43:00,
2013-06-21 16:49:00,85.7,57.8,30.23,NW,315,3.3,5.4,39,0.00,,,0.04,WUHU216HW,2013-06-21 20:49:00,
2013-06-21 16:54:00,85.9,58.7,30.22,North,0,1.8,5.4,40,0.00,,,0.04,WUHU216HW,2013-06-21 20:54:00,
2013-06-21 16:59:00,85.9,58.7,30.22,WSW,248,3.1,3.1,40,0.00,,,0.04,WUHU216HW,2013-06-21 20:59:00,
2013-06-21 17:04:00,85.9,58.0,30.22,WNW,293,4.9,4.9,39,0.00,,,0.04,WUHU216HW,2013-06-21 21:04:00,
2013-06-21 17:09:00,85.7,57.1,30.22,WNW,293,3.4,4.9,38,0.00,,,0.04,WUHU216HW,2013-06-21 21:09:00,
2013-06-21 17:14:00,85.9,58.0,30.22,NW,315,3.8,3.8,39,0.00,,,0.04,WUHU216HW,2013-06-21 21:14:00,
2013-06-21 17:19:00,85.7,57.8,30.22,NW,309,2.1,3.8,39,0.00,,,0.04,WUHU216HW,2013-06-21 21:19:00,
2013-06-21 17:24:00,85.7,58.5,30.22,West,270,0.0,3.4,40,0.00,,,0.04,WUHU216HW,2013-06-21 21:24:00,
2013-06-21 17:29:00,85.7,59.8,30.22,NNW,338,0.4,3.4,42,0.00,,,0.04,WUHU216HW,2013-06-21 21:29:00,
2013-06-21 17:34:00,85.5,58.3,30.22,WNW,285,1.8,3.1,40,0.00,,,0.04,WUHU216HW,2013-06-21 21:34:00,
2013-06-21 17:39:00,85.1,57.9,30.22,NNW,338,4.0,5.4,40,0.01,,,0.05,WUHU216HW,2013-06-21 21:39:00,
2013-06-21 17:44:00,85.0,56.5,30.22,NNE,23,3.1,5.4,38,0.01,,,0.05,WUHU216HW,2013-06-21 21:44:00,
2013-06-21 17:49:00,84.8,57.7,30.22,WNW,293,1.3,3.1,40,0.01,,,0.05,WUHU216HW,2013-06-21 21:49:00,
2013-06-21 17:54:00,84.6,56.8,30.22,WNW,287,2.0,4.0,39,0.01,,,0.05,WUHU216HW,2013-06-21 21:54:00,
2013-06-21 17:59:00,84.6,56.8,30.22,WSW,248,2.5,4.0,39,0.01,,,0.05,WUHU216HW,2013-06-21 21:59:00,
2013-06-21 18:04:00,84.4,57.3,30.22,NNE,23,2.2,2.9,40,0.01,,,0.05,WUHU216HW,2013-06-21 22:04:00,
2013-06-21 18:09:00,84.2,57.1,30.22,West,277,1.8,3.6,40,0.01,,,0.05,WUHU216HW,2013-06-21 22:09:00,
2013-06-21 18:14:00,84.1,57.0,30.22,NNW,338,2.7,3.6,40,0.01,,,0.05,WUHU216HW,2013-06-21 22:14:00,
2013-06-21 18:19:00,83.9,56.9,30.23,NE,45,3.6,3.6,40,0.01,,,0.05,WUHU216HW,2013-06-21 22:19:00,
2013-06-21 18:24:00,83.7,58.7,30.23,North,351,2.2,3.6,43,0.01,,,0.05,WUHU216HW,2013-06-21 22:24:00,
2013-06-21 18:29:00,83.3,57.7,30.23,WSW,248,2.0,4.0,42,0.01,,,0.05,WUHU216HW,2013-06-21 22:29:00,
2013-06-21 18:34:00,83.2,57.6,30.23,NW,315,1.7,4.0,42,0.00,,,0.05,WUHU216HW,2013-06-21 22:34:00,
2013-06-21 18:39:00,83.2,59.5,30.23,North,354,1.5,2.5,45,0.00,,,0.05,WUHU216HW,2013-06-21 22:39:00,
2013-06-21 18:44:00,82.8,59.1,30.23,NNW,338,1.8,2.5,45,0.00,,,0.05,WUHU216HW,2013-06-21 22:44:00,
2013-06-21 18:49:00,82.4,59.9,30.23,West,259,1.0,1.8,47,0.00,,,0.05,WUHU216HW,2013-06-21 22:49:00,
2013-06-21 18:54:00,82.3,60.4,30.23,West,272,0.6,1.8,48,0.00,,,0.05,WUHU216HW,2013-06-21 22:54:00,
2013-06-21 18:59:00,81.9,60.1,30.23,WSW,248,1.8,1.8,48,0.00,,,0.05,WUHU216HW,2013-06-21 22:59:00,
2013-06-21 19:04:00,81.7,60.5,30.24,WSW,248,0.0,1.8,49,0.00,,,0.05,WUHU216HW,2013-06-21 23:04:00,
2013-06-21 19:09:00,81.4,60.7,30.24,West,270,0.9,1.8,49,0.00,,,0.05,WUHU216HW,2013-06-21 23:09:00,
2013-06-21 19:14:00,81.0,60.9,30.24,West,270,0.0,1.1,50,0.00,,,0.05,WUHU216HW,2013-06-21 23:14:00,
2013-06-21 19:19:00,80.8,60.7,30.24,West,270,0.0,0.0,50,0.00,,,0.05,WUHU216HW,2013-06-21 23:19:00,
2013-06-21 19:24:00,80.6,60.0,30.24,West,270,0.0,0.0,49,0.00,,,0.05,WUHU216HW,2013-06-21 23:24:00,
2013-06-21 19:29:00,80.3,60.3,30.24,West,270,0.0,0.0,50,0.00,,,0.05,WUHU216HW,2013-06-21 23:29:00,
2013-06-21 19:34:00,79.9,59.9,30.23,West,270,0.0,0.0,50,0.00,,,0.05,WUHU216HW,2013-06-21 23:34:00,
2013-06-21 19:39:00,79.6,59.6,30.24,West,270,0.0,0.0,50,0.00,,,0.05,WUHU216HW,2013-06-21 23:39:00,
2013-06-21 19:44:00,79.2,59.8,30.24,West,270,0.0,0.0,51,0.00,,,0.05,WUHU216HW,2013-06-21 23:44:00,
2013-06-21 19:49:00,78.8,59.4,30.24,West,270,0.0,0.2,51,0.00,,,0.05,WUHU216HW,2013-06-21 23:49:00,
2013-06-21 19:54:00,78.7,59.9,30.24,West,270,0.0,0.2,52,0.00,,,0.05,WUHU216HW,2013-06-21 23:54:00,
2013-06-21 19:59:00,78.5,60.2,30.24,WNW,293,0.0,0.7,53,0.00,,,0.05,WUHU216HW,2013-06-21 23:59:00,
2013-06-21 20:04:00,78.1,59.8,30.24,WNW,293,0.0,0.7,53,0.00,,,0.05,WUHU216HW,2013-06-22 00:04:00,
2013-06-21 20:09:00,77.8,60.1,30.24,WNW,293,0.0,0.0,54,0.00,,,0.05,WUHU216HW,2013-06-22 00:09:00,
2013-06-21 20:14:00,77.4,60.2,30.24,WNW,293,0.0,0.0,55,0.00,,,0.05,WUHU216HW,2013-06-22 00:14:00,
2013-06-21 20:19:00,77.0,59.8,30.24,WNW,293,0.0,0.0,55,0.00,,,0.05,WUHU216HW,2013-06-22 00:19:00,
2013-06-21 20:24:00,76.9,60.2,30.24,WNW,293,0.0,0.0,56,0.00,,,0.05,WUHU216HW,2013-06-22 00:24:00,
2013-06-21 20:29:00,76.5,60.3,30.24,WNW,293,0.0,0.0,57,0.00,,,0.05,WUHU216HW,2013-06-22 00:29:00,
2013-06-21 20:34:00,76.1,59.9,30.24,WNW,293,0.0,0.0,57,0.00,,,0.05,WUHU216HW,2013-06-22 00:34:00,
2013-06-21 20:39:00,76.0,60.3,30.24,WNW,293,0.0,0.0,58,0.00,,,0.05,WUHU216HW,2013-06-22 00:39:00,
2013-06-21 20:44:00,75.6,60.0,30.24,WNW,293,0.0,0.0,58,0.00,,,0.05,WUHU216HW,2013-06-22 00:44:00,
2013-06-21 20:49:00,75.2,60.0,30.24,South,180,0.9,0.9,59,0.00,,,0.05,WUHU216HW,2013-06-22 00:49:00,
2013-06-21 20:54:00,75.2,60.5,30.24,South,180,0.4,0.9,60,0.00,,,0.05,WUHU216HW,2013-06-22 00:54:00,
2013-06-21 20:59:00,74.9,60.7,30.24,South,180,0.0,0.9,61,0.00,,,0.05,WUHU216HW,2013-06-22 00:59:00,
2013-06-21 21:04:00,74.7,60.5,30.24,NW,315,0.0,0.0,61,0.00,,,0.05,WUHU216HW,2013-06-22 01:04:00,
2013-06-21 21:09:00,74.2,60.4,30.24,ESE,113,0.0,0.2,62,0.00,,,0.05,WUHU216HW,2013-06-22 01:09:00,
2013-06-21 21:14:00,74.0,60.2,30.24,ESE,113,0.0,0.2,62,0.01,,,0.06,WUHU216HW,2013-06-22 01:14:00,
2013-06-21 21:19:00,73.8,60.5,30.25,East,90,0.0,0.0,63,0.01,,,0.06,WUHU216HW,2013-06-22 01:19:00,
2013-06-21 21:24:00,73.6,60.3,30.25,East,90,0.0,0.0,63,0.01,,,0.06,WUHU216HW,2013-06-22 01:24:00,
2013-06-21 21:29:00,73.4,60.1,30.25,East,90,0.0,0.0,63,0.01,,,0.06,WUHU216HW,2013-06-22 01:29:00,
2013-06-21 21:34:00,73.1,60.2,30.25,East,90,0.0,0.0,64,0.01,,,0.06,WUHU216HW,2013-06-22 01:34:00,
2013-06-21 21:39:00,73.1,60.2,30.25,East,90,0.0,0.0,64,0.01,,,0.06,WUHU216HW,2013-06-22 01:39:00,
2013-06-21 21:44:00,72.7,60.3,30.25,NW,315,0.0,0.0,65,0.01,,,0.06,WUHU216HW,2013-06-22 01:44:00,
2013-06-21 21:49:00,72.5,60.1,30.25,NW,315,0.0,0.0,65,0.01,,,0.06,WUHU216HW,2013-06-22 01:49:00,
2013-06-21 21:54:00,72.4,60.4,30.25,NW,315,0.0,0.0,66,0.01,,,0.06,WUHU216HW,2013-06-22 01:54:00,
2013-06-21 21:59:00,72.2,60.2,30.25,NW,315,0.0,0.0,66,0.01,,,0.06,WUHU216HW,2013-06-22 01:59:00,
2013-06-21 22:04:00,72.0,60.4,30.25,NW,315,0.0,0.0,67,0.01,,,0.06,WUHU216HW,2013-06-22 02:04:00,
2013-06-21 22:09:00,71.8,60.2,30.25,NNE,23,0.0,0.0,67,0.00,,,0.06,WUHU216HW,2013-06-22 02:09:00,
2013-06-21 22:14:00,71.6,60.0,30.25,East,90,0.0,0.0,67,0.00,,,0.06,WUHU216HW,2013-06-22 02:14:00,
2013-06-21 22:19:00,71.5,60.3,30.26,East,90,0.0,0.0,67,0.00,,,0.06,WUHU216HW,2013-06-22 02:19:00,
2013-06-21 22:24:00,71.3,60.2,30.25,East,90,0.0,0.4,67,0.00,,,0.06,WUHU216HW,2013-06-22 02:24:00,
2013-06-21 22:29:00,71.1,60.4,30.25,East,90,0.0,0.4,68,0.00,,,0.06,WUHU216HW,2013-06-22 02:29:00,
2013-06-21 22:34:00,70.9,60.2,30.25,East,90,0.4,0.4,68,0.00,,,0.06,WUHU216HW,2013-06-22 02:34:00,
2013-06-21 22:39:00,70.9,60.5,30.25,East,90,0.4,0.4,69,0.00,,,0.06,WUHU216HW,2013-06-22 02:39:00,
2013-06-21 22:44:00,70.7,60.7,30.25,East,90,0.0,0.4,70,0.00,,,0.06,WUHU216HW,2013-06-22 02:44:00,
2013-06-21 22:49:00,70.6,60.6,30.25,East,90,0.0,0.4,70,0.00,,,0.06,WUHU216HW,2013-06-22 02:49:00,
2013-06-21 22:54:00,70.4,60.4,30.25,East,90,0.6,0.9,70,0.00,,,0.06,WUHU216HW,2013-06-22 02:54:00,
2013-06-21 22:59:00,70.2,60.6,30.25,ESE,113,0.7,0.9,71,0.00,,,0.06,WUHU216HW,2013-06-22 02:59:00,
2013-06-21 23:04:00,70.2,60.6,30.25,ESE,113,0.4,0.7,71,0.00,,,0.06,WUHU216HW,2013-06-22 03:04:00,
2013-06-21 23:09:00,70.2,60.6,30.25,East,90,0.4,0.7,71,0.00,,,0.06,WUHU216HW,2013-06-22 03:09:00,
2013-06-21 23:14:00,70.2,60.6,30.25,SE,135,1.1,1.1,71,0.00,,,0.06,WUHU216HW,2013-06-22 03:14:00,
2013-06-21 23:19:00,70.2,61.0,30.25,ESE,113,0.4,1.1,72,0.00,,,0.06,WUHU216HW,2013-06-22 03:19:00,
2013-06-21 23:24:00,70.0,60.8,30.25,ESE,113,1.0,1.1,72,0.00,,,0.06,WUHU216HW,2013-06-22 03:24:00,
2013-06-21 23:29:00,70.0,60.8,30.25,SE,135,1.1,1.1,72,0.00,,,0.06,WUHU216HW,2013-06-22 03:29:00,
2013-06-21 23:34:00,69.8,60.6,30.25,SE,135,0.0,1.1,72,0.00,,,0.06,WUHU216HW,2013-06-22 03:34:00,
2013-06-21 23:39:00,69.8,60.6,30.25,ESE,113,0.0,0.4,72,0.00,,,0.06,WUHU216HW,2013-06-22 03:39:00,
2013-06-21 23:44:00,69.7,60.5,30.25,SE,135,0.0,0.7,72,0.00,,,0.06,WUHU216HW,2013-06-22 03:44:00,
2013-06-21 23:49:00,69.7,60.9,30.25,SE,135,0.2,0.7,73,0.00,,,0.06,WUHU216HW,2013-06-22 03:49:00,
2013-06-21 23:54:00,69.5,60.7,30.25,SE,135,0.0,0.7,73,0.00,,,0.06,WUHU216HW,2013-06-22 03:54:00,
2013-06-21 23:59:00,69.5,60.7,30.25,SE,135,0.0,0.7,73,0.00,,,0.06,WUHU216HW,2013-06-22 03:59:00,